Time;durP1;ratioP1;P1;durP2;ratioP2;P2;SDS_P1;SDS_P2;PMS_P1;PMS_P2;Temp;Humidity;BMP_temperature;BMP_pressure;BME280_temperature;BME280_humidity;BME280_pressure;Samples;Min_cycle;Max_cycle;Signal;HPM_P1;HPM_P2
2023/04/07 04:22:34;;;;;;;2.60;2.10;;;;;;;6.47;100.00;100101.16;5089511;28;20901;-63
2023/04/07 04:25:00;;;;;;;2.30;1.83;;;;;;;6.49;100.00;100098.34;5088302;28;20408;-62
2023/04/07 04:27:27;;;;;;;3.33;2.30;;;;;;;6.48;100.00;100094.03;5087930;28;20040;-63
2023/04/07 04:30:00;;;;;;;3.72;2.35;;;;;;;6.57;100.00;100101.06;5088244;28;20024;-63
2023/04/07 04:32:40;;;;;;;3.15;2.20;;;;;;;6.55;100.00;100099.56;5088148;28;20040;-63
2023/04/07 04:35:07;;;;;;;4.30;2.20;;;;;;;6.53;100.00;100102.38;5088003;28;20089;-63
2023/04/07 04:37:39;;;;;;;3.60;2.67;;;;;;;6.47;100.00;100113.56;5087685;28;20041;-63
2023/04/07 04:40:09;;;;;;;4.32;2.50;;;;;;;6.40;100.00;100113.31;5087857;28;20039;-64
2023/04/07 04:42:35;;;;;;;2.80;2.20;;;;;;;6.40;100.00;100109.84;5087833;28;20119;-63
2023/04/07 04:45:02;;;;;;;2.22;1.95;;;;;;;6.43;100.00;100112.19;5087920;28;20105;-63
2023/04/07 04:47:30;;;;;;;2.95;2.50;;;;;;;6.45;100.00;100112.84;5087455;28;20028;-63
2023/04/07 04:49:56;;;;;;;7.22;3.10;;;;;;;6.45;100.00;100105.75;5087813;28;20040;-64
2023/04/07 04:52:23;;;;;;;2.92;2.42;;;;;;;6.48;100.00;100104.63;5087736;28;20102;-64
2023/04/07 04:54:49;;;;;;;3.60;2.47;;;;;;;6.52;100.00;100106.84;5087731;28;20111;-64
2023/04/07 04:57:15;;;;;;;2.58;2.03;;;;;;;6.57;100.00;100101.06;5087185;28;20043;-62
2023/04/07 04:59:42;;;;;;;3.17;2.33;;;;;;;6.59;100.00;100104.41;5087680;28;20024;-63
2023/04/07 05:02:07;;;;;;;4.25;2.65;;;;;;;6.60;100.00;100103.44;5087463;28;20132;-63
2023/04/07 05:04:33;;;;;;;3.08;2.17;;;;;;;6.63;100.00;100100.47;5087556;28;20036;-64
2023/04/07 05:07:08;;;;;;;2.40;2.05;;;;;;;6.65;100.00;100100.31;5087057;28;20445;-63
2023/04/07 05:09:34;;;;;;;5.32;2.30;;;;;;;6.69;100.00;100102.50;5087395;28;20131;-64
2023/04/07 05:12:01;;;;;;;3.03;2.20;;;;;;;6.70;100.00;100106.81;5087378;28;20039;-63
2023/04/07 05:14:29;;;;;;;3.88;2.45;;;;;;;6.72;100.00;100107.50;5087312;28;20036;-64
2023/04/07 05:17:02;;;;;;;4.20;2.58;;;;;;;6.75;100.00;100107.19;5086900;28;20105;-63
2023/04/07 05:19:28;;;;;;;2.92;2.08;;;;;;;6.73;100.00;100106.53;5087105;28;20489;-63
2023/04/07 05:21:58;;;;;;;3.17;2.00;;;;;;;6.74;100.00;100110.00;5086890;28;20119;-63
2023/04/07 05:24:27;;;;;;;3.50;2.08;;;;;;;6.70;100.00;100104.16;5087182;28;20127;-63
2023/04/07 05:26:56;;;;;;;2.67;2.22;;;;;;;6.75;100.00;100107.19;5086886;28;20127;-64
2023/04/07 05:29:22;;;;;;;2.67;2.22;;;;;;;6.78;100.00;100106.03;5087097;28;20115;-62
2023/04/07 05:31:48;;;;;;;6.72;2.55;;;;;;;6.76;100.00;100100.91;5085720;28;20036;-63
2023/04/07 05:34:15;;;;;;;3.63;2.78;;;;;;;6.85;100.00;100116.91;5073230;28;20032;-63
2023/04/07 05:36:47;;;;;;;2.20;1.70;;;;;;;6.85;100.00;100116.91;5073273;28;20082;-63
2023/04/07 05:39:14;;;;;;;3.50;2.17;;;;;;;6.90;100.00;100111.94;5073222;28;20037;-64
2023/04/07 05:41:40;;;;;;;2.90;1.65;;;;;;;6.92;100.00;100113.47;5073243;28;20136;-64
2023/04/07 05:44:05;;;;;;;3.20;2.03;;;;;;;6.94;100.00;100113.31;5073190;28;20094;-63
2023/04/07 05:46:34;;;;;;;3.00;1.92;;;;;;;6.96;100.00;100114.81;5073141;28;20064;-63
2023/04/07 05:49:00;;;;;;;2.85;2.03;;;;;;;7.00;100.00;100115.34;5072527;28;20430;-63
2023/04/07 05:51:26;;;;;;;2.80;2.20;;;;;;;7.02;100.00;100116.03;5073023;28;20082;-64
2023/04/07 05:53:53;;;;;;;;;;;;;;;7.06;100.00;100109.44;5073495;28;20037;-64
2023/04/07 05:56:21;;;;;;;2.78;1.60;;;;;;;7.06;100.00;100112.09;5072923;28;19956;-64
2023/04/07 05:58:47;;;;;;;3.70;2.30;;;;;;;7.08;100.00;100113.59;5072687;28;20392;-64
2023/04/07 06:01:14;;;;;;;3.30;2.03;;;;;;;7.08;100.00;100115.41;5071688;28;20036;-63
2023/04/07 06:03:40;;;;;;;2.40;2.03;;;;;;;7.14;100.00;100117.44;5072021;28;20035;-64
2023/04/07 06:06:16;;;;;;;3.35;2.05;;;;;;;7.20;100.00;100116.00;5052748;28;20083;-63
2023/04/07 06:08:44;;;;;;;4.03;2.40;;;;;;;7.22;100.00;100116.66;5052577;28;20396;-64
2023/04/07 06:11:10;;;;;;;2.15;1.95;;;;;;;7.28;100.00;100116.06;5052796;28;20083;-63
2023/04/07 06:13:36;;;;;;;3.38;2.30;;;;;;;7.33;100.00;100117.25;5052647;28;20037;-63
2023/04/07 06:16:01;;;;;;;4.90;2.38;;;;;;;7.47;100.00;100126.44;5053775;28;20044;-63
2023/04/07 06:18:27;;;;;;;3.20;2.40;;;;;;;7.49;100.00;100121.81;5064674;28;20619;-59
2023/04/07 06:20:52;;;;;;;2.30;1.90;;;;;;;7.67;100.00;100119.13;5073666;28;20497;-60
2023/04/07 06:23:17;;;;;;;3.40;2.53;;;;;;;7.83;100.00;100119.22;5073872;28;20042;-60
2023/04/07 06:25:44;;;;;;;2.58;2.08;;;;;;;7.93;100.00;100115.59;5073815;28;20127;-60
2023/04/07 06:28:09;;;;;;;2.65;2.15;;;;;;;8.01;100.00;100111.13;5072218;28;20033;-60
2023/04/07 06:30:35;;;;;;;2.95;1.98;;;;;;;8.07;100.00;100120.28;5072382;28;20519;-60
2023/04/07 06:33:00;;;;;;;3.38;1.95;;;;;;;8.11;100.00;100129.59;5073715;28;20039;-61
2023/04/07 06:35:26;;;;;;;3.03;2.00;;;;;;;8.20;100.00;100120.66;5072270;28;20420;-59
2023/04/07 06:37:52;;;;;;;2.85;2.55;;;;;;;8.23;100.00;100119.53;5073173;28;20710;-56
2023/04/07 06:40:17;;;;;;;3.28;2.63;;;;;;;8.27;100.00;100126.16;5072201;28;20041;-59
2023/04/07 06:42:43;;;;;;;5.10;2.60;;;;;;;8.29;100.00;100113.59;5073528;28;20038;-57
2023/04/07 06:45:22;;;;;;;3.20;2.25;;;;;;;8.34;100.00;100119.22;5071150;28;20040;-60
2023/04/07 06:47:47;;;;;;;3.13;2.42;;;;;;;8.38;100.00;100116.13;5073171;28;20051;-60
2023/04/07 06:50:13;;;;;;;2.80;2.30;;;;;;;8.36;99.15;100112.78;5073264;28;20042;-59
2023/04/07 06:52:38;;;;;;;3.42;2.40;;;;;;;8.45;98.97;100112.81;5073227;28;20036;-61
2023/04/07 06:55:04;;;;;;;3.33;2.20;;;;;;;8.45;99.01;100115.47;5073248;28;20048;-60
2023/04/07 06:57:29;;;;;;;2.70;2.33;;;;;;;8.50;99.20;100118.47;5072742;28;20086;-61
2023/04/07 06:59:55;;;;;;;3.45;2.40;;;;;;;8.66;98.07;100113.16;5072967;28;20404;-59
2023/04/07 07:02:20;;;;;;;3.33;2.40;;;;;;;8.82;94.87;100120.34;5073127;28;20032;-58
2023/04/07 07:04:45;;;;;;;3.03;2.72;;;;;;;9.01;95.86;100117.38;5073060;28;20051;-60
2023/04/07 07:07:11;;;;;;;4.88;2.67;;;;;;;9.28;98.87;100123.31;5072564;28;20165;-61
2023/04/07 07:09:36;;;;;;;4.45;3.03;;;;;;;9.46;96.97;100121.31;5072961;28;20051;-57
2023/04/07 07:12:02;;;;;;;3.22;2.72;;;;;;;9.63;94.74;100124.75;5072877;28;20033;-57
2023/04/07 07:14:27;;;;;;;3.53;3.00;;;;;;;9.72;91.87;100129.91;5072687;28;20464;-61
2023/04/07 07:16:52;;;;;;;4.18;2.78;;;;;;;9.83;91.05;100122.53;5072613;28;20033;-59
2023/04/07 07:19:18;;;;;;;6.47;3.20;;;;;;;9.99;89.35;100123.31;5072563;28;20040;-60
2023/04/07 07:21:43;;;;;;;4.25;2.40;;;;;;;10.26;86.45;100126.56;5072559;28;20066;-59
2023/04/07 07:24:09;;;;;;;3.55;2.70;;;;;;;10.44;86.32;100121.81;5072657;28;20036;-60
2023/04/07 07:26:34;;;;;;;4.35;2.33;;;;;;;10.60;83.34;100119.03;5072530;28;20048;-59
2023/04/07 07:29:00;;;;;;;3.75;2.42;;;;;;;10.56;84.59;100117.75;5072297;28;20036;-60
2023/04/07 07:31:25;;;;;;;3.20;2.40;;;;;;;10.75;86.00;100111.09;5072438;28;20459;-60
2023/04/07 07:33:51;;;;;;;3.85;2.50;;;;;;;11.00;83.00;100109.06;5072523;28;20040;-59
2023/04/07 07:36:17;;;;;;;3.45;2.38;;;;;;;10.75;81.80;100111.09;5072481;28;20041;-60
2023/04/07 07:38:42;;;;;;;3.15;2.35;;;;;;;10.81;83.00;100099.72;5072149;28;20409;-60
2023/04/07 07:41:08;;;;;;;3.58;2.80;;;;;;;10.95;84.51;100108.78;5072462;28;20036;-60
2023/04/07 07:43:33;;;;;;;3.03;2.17;;;;;;;10.93;83.78;100116.13;5072286;28;20032;-60
2023/04/07 07:45:59;;;;;;;3.53;2.17;;;;;;;10.99;82.71;100117.25;5072228;28;20093;-58
2023/04/07 07:48:24;;;;;;;2.65;1.90;;;;;;;11.10;79.95;100114.19;5071970;28;20040;-61
2023/04/07 07:50:51;;;;;;;4.22;2.50;;;;;;;10.90;82.52;100121.00;5072203;28;20103;-61
2023/04/07 07:53:17;;;;;;;2.67;1.92;;;;;;;10.89;81.56;100117.53;5072212;28;20047;-61
2023/04/07 07:55:42;;;;;;;3.25;2.13;;;;;;;10.80;82.62;100124.72;5071904;28;20036;-60
2023/04/07 07:58:08;;;;;;;2.97;2.10;;;;;;;10.86;82.28;100123.19;5071743;28;20039;-61
2023/04/07 08:00:33;;;;;;;3.35;2.17;;;;;;;10.81;82.95;100126.38;5072154;28;20046;-60
2023/04/07 08:02:59;;;;;;;2.53;1.98;;;;;;;10.86;82.82;100125.84;5072201;28;20043;-63
2023/04/07 08:05:25;;;;;;;3.67;2.10;;;;;;;10.97;84.49;100130.78;5072057;28;20478;-60
2023/04/07 08:07:51;;;;;;;3.92;2.13;;;;;;;11.10;85.84;100131.00;5071740;28;20123;-62
2023/04/07 08:10:19;;;;;;;2.72;1.92;;;;;;;11.19;83.03;100137.09;5071947;28;20033;-59
2023/04/07 08:12:44;;;;;;;3.38;2.20;;;;;;;11.36;84.59;100146.59;5070851;28;20104;-59
2023/04/07 08:15:10;;;;;;;3.22;2.33;;;;;;;11.59;83.32;100135.88;5066124;28;20166;-58
2023/04/07 08:17:36;;;;;;;3.42;2.10;;;;;;;11.66;83.40;100144.78;5071716;28;20119;-59
2023/04/07 08:20:02;;;;;;;3.33;2.22;;;;;;;11.73;82.46;100136.06;5071948;28;20036;-59
2023/04/07 08:22:28;;;;;;;3.40;1.73;;;;;;;11.98;82.50;100140.16;5071846;28;20037;-58
2023/04/07 08:24:53;;;;;;;3.72;1.83;;;;;;;12.01;78.00;100141.63;5071859;28;20067;-57
2023/04/07 08:27:20;;;;;;;3.05;2.17;;;;;;;12.22;79.89;100142.53;5071487;28;20042;-59
2023/04/07 08:29:47;;;;;;;2.67;2.28;;;;;;;12.23;79.62;100144.19;5071798;28;20064;-60
2023/04/07 08:32:12;;;;;;;2.15;1.80;;;;;;;12.36;77.92;100140.03;5071859;28;20032;-59
2023/04/07 08:34:38;;;;;;;1.90;1.65;;;;;;;12.47;79.24;100140.38;5071794;28;20040;-60
2023/04/07 08:37:03;;;;;;;2.13;1.75;;;;;;;12.51;75.81;100146.16;5071552;28;20041;-60
2023/04/07 08:39:29;;;;;;;2.45;1.48;;;;;;;12.69;74.07;100143.06;5071748;28;20041;-59
2023/04/07 08:41:56;;;;;;;1.77;1.40;;;;;;;12.92;75.22;100154.41;5071605;28;20036;-59
2023/04/07 08:44:22;;;;;;;2.57;1.97;;;;;;;12.96;75.17;100144.16;5071717;28;20037;-61
2023/04/07 08:46:50;;;;;;;2.13;1.70;;;;;;;12.94;73.92;100156.91;5071474;28;20684;-59
2023/04/07 08:49:17;;;;;;;2.08;1.65;;;;;;;12.92;70.82;100151.75;5071537;28;20109;-61
2023/04/07 08:51:47;;;;;;;2.83;1.75;;;;;;;13.10;70.40;100150.44;5071590;28;20044;-59
2023/04/07 08:54:14;;;;;;;3.10;2.28;;;;;;;12.86;74.10;100149.00;5071620;28;20033;-59
2023/04/07 08:56:41;;;;;;;;;;;;;;;12.63;77.02;100155.34;5071845;28;20462;-57
2023/04/07 08:59:08;;;;;;;2.58;2.08;;;;;;;12.49;76.04;100153.53;5071292;28;19916;-58
2023/04/07 09:01:35;;;;;;;3.63;2.13;;;;;;;12.60;74.41;100155.72;5071569;28;20056;-60
2023/04/07 09:04:04;;;;;;;2.85;1.77;;;;;;;12.70;73.20;100155.41;5071481;28;20028;-59
2023/04/07 09:06:30;;;;;;;5.30;2.30;;;;;;;12.48;74.42;100152.69;5071448;28;20089;-62
2023/04/07 09:09:00;;;;;;;3.67;2.15;;;;;;;12.41;74.83;100162.50;5074069;28;20517;-59
2023/04/07 09:11:27;;;;;;;3.28;1.98;;;;;;;12.43;76.29;100156.94;5075066;28;20047;-60
2023/04/07 09:13:53;;;;;;;2.40;2.00;;;;;;;12.49;77.49;100166.88;5075059;28;20032;-61
2023/04/07 09:16:19;;;;;;;2.45;2.05;;;;;;;12.46;75.56;100164.59;5074956;28;20037;-60
2023/04/07 09:18:45;;;;;;;4.18;2.00;;;;;;;12.48;73.10;100159.91;5074693;28;20036;-59
2023/04/07 09:21:10;;;;;;;3.33;1.88;;;;;;;12.40;72.65;100165.34;5074978;28;20033;-60
2023/04/07 09:23:39;;;;;;;2.88;1.90;;;;;;;12.57;72.77;100166.78;5074918;28;20611;-60
2023/04/07 09:26:32;;;;;;;1.80;1.33;;;;;;;12.57;72.98;100165.94;5074837;28;20029;-59
2023/04/07 09:29:01;;;;;;;2.88;1.83;;;;;;;12.70;72.00;100166.09;5073639;28;20055;-56
2023/04/07 09:31:47;;;;;;;4.50;2.05;;;;;;;12.84;69.99;100169.72;5074693;28;20115;-59
2023/04/07 09:34:30;;;;;;;3.38;2.10;;;;;;;12.75;70.26;100167.19;5074779;28;20539;-58
2023/04/07 09:36:56;;;;;;;2.80;1.85;;;;;;;12.50;70.22;100165.88;5074497;28;20573;-59
2023/04/07 09:39:22;;;;;;;2.47;2.25;;;;;;;13.17;71.95;100162.03;5074628;28;20045;-61
2023/04/07 09:41:47;;;;;;;2.72;2.20;;;;;;;13.82;71.24;100166.28;5074597;28;20059;-61
2023/04/07 09:44:13;;;;;;;2.40;1.92;;;;;;;13.92;64.15;100152.56;5074586;28;20393;-61
2023/04/07 09:46:55;;;;;;;2.97;1.95;;;;;;;13.95;63.54;100171.72;5074351;28;20058;-61
2023/04/07 09:49:21;;;;;;;3.90;1.90;;;;;;;13.76;63.02;100180.47;5074425;28;20194;-62
2023/04/07 09:52:06;;;;;;;3.17;1.80;;;;;;;14.09;68.70;100167.28;5074395;28;20028;-62
2023/04/07 09:54:36;;;;;;;2.28;2.00;;;;;;;14.60;61.68;100172.25;5074442;28;20035;-60
2023/04/07 09:57:03;;;;;;;2.47;1.55;;;;;;;14.71;59.59;100163.63;5074038;28;20040;-60
2023/04/07 09:59:30;;;;;;;2.10;1.23;;;;;;;14.73;57.01;100166.09;5074431;28;20043;-59
2023/04/07 10:01:56;;;;;;;2.45;1.60;;;;;;;14.87;57.89;100165.13;5074262;28;20330;-61
2023/04/07 10:04:23;;;;;;;3.15;1.40;;;;;;;15.56;60.10;100156.72;5074303;28;20086;-59
2023/04/07 10:06:49;;;;;;;3.70;1.90;;;;;;;15.54;56.73;100166.00;5074017;28;20126;-59
2023/04/07 10:09:15;;;;;;;2.92;1.83;;;;;;;15.51;56.03;100164.53;5073914;28;20040;-60
2023/04/07 10:11:41;;;;;;;3.70;1.70;;;;;;;14.97;56.54;100167.41;5073905;28;20037;-57
2023/04/07 10:14:09;;;;;;;2.83;1.63;;;;;;;15.04;57.97;100176.28;5074107;28;20047;-61
2023/04/07 10:16:41;;;;;;;1.85;1.38;;;;;;;15.78;56.30;100173.47;5073918;28;20036;-60
2023/04/07 10:19:07;;;;;;;3.25;1.50;;;;;;;16.16;53.56;100168.19;5073469;28;20121;-60
2023/04/07 10:21:38;;;;;;;4.47;1.40;;;;;;;16.49;51.72;100169.94;5073808;28;20029;-60
2023/04/07 10:24:25;;;;;;;1.77;1.13;;;;;;;16.76;52.08;100171.50;5073670;28;20040;-62
2023/04/07 10:26:55;;;;;;;2.90;1.30;;;;;;;16.77;50.38;100166.94;5073514;28;20051;-62
2023/04/07 10:29:23;;;;;;;1.88;1.38;;;;;;;17.09;51.13;100152.47;5073744;28;20094;-62
2023/04/07 10:31:48;;;;;;;;;;;;;;;17.01;48.60;100171.53;5074095;28;20123;-61
2023/04/07 10:34:14;;;;;;;1.45;0.90;;;;;;;17.23;50.31;100168.50;5073721;28;20001;-61
2023/04/07 10:37:09;;;;;;;1.27;1.10;;;;;;;16.74;50.33;100160.13;5073435;28;20035;-60
2023/04/07 10:39:36;;;;;;;1.85;1.50;;;;;;;16.50;50.73;100156.28;5073516;28;20043;-61
2023/04/07 10:42:02;;;;;;;1.88;1.40;;;;;;;16.60;53.03;100161.19;5072237;28;20036;-60
2023/04/07 10:44:47;;;;;;;1.27;0.90;;;;;;;17.34;52.07;100157.00;5073391;28;20052;-61
2023/04/07 10:47:13;;;;;;;2.60;1.60;;;;;;;17.76;51.36;100160.00;5072944;28;20036;-60
2023/04/07 10:49:38;;;;;;;3.03;1.30;;;;;;;17.24;51.04;100162.91;5071993;28;20036;-62
2023/04/07 10:52:13;;;;;;;1.83;1.25;;;;;;;17.48;49.17;100163.97;5073076;28;20040;-61
2023/04/07 10:54:39;;;;;;;2.67;1.70;;;;;;;18.02;49.23;100157.03;5073180;28;20410;-62
2023/04/07 10:57:07;;;;;;;2.42;1.50;;;;;;;18.43;48.01;100166.31;5072934;28;20034;-62
2023/04/07 10:59:33;;;;;;;2.15;1.30;;;;;;;18.60;46.22;100136.84;5073012;28;20040;-62
2023/04/07 11:02:13;;;;;;;1.33;1.00;;;;;;;18.73;46.10;100158.28;5073020;28;20047;-59
2023/04/07 11:04:45;;;;;;;2.10;1.30;;;;;;;17.84;49.06;100162.41;5072965;28;20124;-62
2023/04/07 11:07:12;;;;;;;1.77;1.20;;;;;;;17.13;49.01;100162.78;5072496;28;20044;-60
2023/04/07 11:09:39;;;;;;;1.90;1.30;;;;;;;16.60;49.09;100155.81;5072922;28;20055;-57
2023/04/07 11:12:05;;;;;;;1.83;1.03;;;;;;;16.34;51.60;100159.44;5072755;28;20059;-61
2023/04/07 11:14:32;;;;;;;2.45;1.23;;;;;;;16.05;52.06;100158.13;5071546;28;20045;-61
2023/04/07 11:17:00;;;;;;;1.63;0.90;;;;;;;15.67;51.30;100149.91;5072516;28;20111;-62
2023/04/07 11:19:26;;;;;;;3.88;1.27;;;;;;;15.45;51.92;100150.13;5072618;28;20494;-60
2023/04/07 11:22:15;;;;;;;2.00;1.38;;;;;;;15.23;52.61;100148.66;5072484;28;20036;-61
2023/04/07 11:24:40;;;;;;;2.63;1.30;;;;;;;15.61;52.33;100151.53;5072687;28;20059;-59
2023/04/07 11:27:11;;;;;;;1.73;1.17;;;;;;;16.22;50.95;100148.53;5072267;28;20072;-59
2023/04/07 11:29:37;;;;;;;1.20;1.00;;;;;;;16.14;50.05;100151.47;5072481;28;20040;-60
2023/04/07 11:32:03;;;;;;;1.15;1.00;;;;;;;17.07;46.81;100151.00;5072055;28;20040;-60
2023/04/07 11:34:35;;;;;;;0.98;0.88;;;;;;;17.00;45.97;100155.63;5072539;28;20051;-59
2023/04/07 11:37:20;;;;;;;1.45;0.90;;;;;;;17.02;44.51;100148.16;5072060;28;20094;-59
2023/04/07 11:39:57;;;;;;;2.67;0.95;;;;;;;16.99;46.19;100151.28;5072364;28;20048;-61
2023/04/07 11:42:38;;;;;;;1.35;0.98;;;;;;;16.81;45.84;100152.81;5072450;28;20028;-58
2023/04/07 11:45:14;;;;;;;2.28;1.13;;;;;;;16.78;46.82;100155.13;5072471;28;20119;-60
2023/04/07 11:47:40;;;;;;;2.80;1.10;;;;;;;16.99;47.03;100162.88;5070917;28;20036;-60
2023/04/07 11:50:06;;;;;;;1.00;0.93;;;;;;;17.63;47.05;100156.34;5069034;28;20162;-60
2023/04/07 11:52:42;;;;;;;1.13;0.95;;;;;;;18.49;44.93;100164.56;5052105;28;20495;-62
2023/04/07 11:55:23;;;;;;;2.45;0.85;;;;;;;19.28;43.13;100160.75;5052015;28;20045;-60
2023/04/07 11:57:52;;;;;;;1.63;0.95;;;;;;;19.33;40.46;100163.59;5051839;28;20103;-59
2023/04/07 12:00:19;;;;;;;0.88;0.80;;;;;;;19.23;40.97;100166.88;5052253;28;20079;-60
2023/04/07 12:02:45;;;;;;;1.48;1.08;;;;;;;18.86;43.84;100159.97;5052119;28;20085;-60
2023/04/07 12:05:10;;;;;;;1.75;0.70;;;;;;;20.08;41.95;100151.28;5051991;28;20163;-60
2023/04/07 12:07:37;;;;;;;1.90;0.77;;;;;;;19.61;42.27;100145.91;5051743;28;20078;-59
2023/04/07 12:10:19;;;;;;;1.63;0.90;;;;;;;19.33;44.10;100168.19;5052172;28;20465;-62
2023/04/07 12:12:45;;;;;;;2.03;0.77;;;;;;;19.02;42.06;100161.16;5051898;28;20481;-59
2023/04/07 12:15:11;;;;;;;1.80;0.70;;;;;;;19.19;41.11;100159.47;5051835;28;20106;-61
2023/04/07 12:17:36;;;;;;;1.25;0.90;;;;;;;19.16;42.37;100159.91;5051548;28;20513;-61
2023/04/07 12:20:02;;;;;;;1.70;1.08;;;;;;;19.53;40.31;100158.69;5052030;28;20494;-59
2023/04/07 12:22:27;;;;;;;1.45;1.10;;;;;;;19.56;41.70;100151.16;5050634;28;20094;-62
2023/04/07 12:24:52;;;;;;;1.23;0.98;;;;;;;19.47;39.93;100156.09;5050584;28;20033;-61
2023/04/07 12:27:18;;;;;;;2.15;1.17;;;;;;;18.96;39.73;100149.41;5051498;28;20037;-61
2023/04/07 12:29:43;;;;;;;1.85;1.17;;;;;;;19.25;40.06;100153.13;5051864;28;20033;-61
2023/04/07 12:32:09;;;;;;;2.15;1.33;;;;;;;18.97;43.47;100142.97;5051609;28;20045;-61
2023/04/07 12:34:36;;;;;;;1.95;0.82;;;;;;;19.39;42.83;100141.06;5051764;28;20036;-60
2023/04/07 12:37:01;;;;;;;1.55;0.90;;;;;;;17.79;43.84;100154.16;5051473;28;20049;-63
2023/04/07 12:39:27;;;;;;;2.10;0.98;;;;;;;18.18;41.22;100161.81;5051757;28;20040;-62
2023/04/07 12:41:52;;;;;;;1.13;0.90;;;;;;;19.18;41.08;100169.44;5051725;28;20092;-57
2023/04/07 12:44:18;;;;;;;1.08;0.88;;;;;;;19.64;42.41;100167.06;5055547;28;20147;-59
2023/04/07 12:46:44;;;;;;;1.40;0.68;;;;;;;18.60;45.03;100177.31;5055567;28;20033;-61
2023/04/07 12:49:09;;;;;;;1.58;0.88;;;;;;;16.87;49.67;100177.22;5055380;28;20037;-62
2023/04/07 12:51:36;;;;;;;1.67;0.95;;;;;;;15.49;52.96;100166.63;5055492;28;20063;-58
2023/04/07 12:54:02;;;;;;;2.25;1.00;;;;;;;15.20;54.88;100175.91;5055430;28;20048;-60
2023/04/07 12:56:27;;;;;;;1.45;0.93;;;;;;;14.92;58.50;100179.56;5055428;28;20037;-60
2023/04/07 12:58:53;;;;;;;1.20;0.82;;;;;;;15.03;58.61;100180.84;5055145;28;20039;-58
2023/04/07 13:01:19;;;;;;;3.08;1.15;;;;;;;14.52;60.64;100175.94;5055284;28;20106;-60
2023/04/07 13:03:45;;;;;;;1.38;1.02;;;;;;;14.55;61.49;100186.28;5070836;28;20063;-60
2023/04/07 13:06:10;;;;;;;2.50;1.35;;;;;;;13.98;65.77;100182.03;5075057;28;20509;-67
2023/04/07 13:08:36;;;;;;;1.73;1.27;;;;;;;14.06;65.33;100191.78;5075019;28;20067;-60
2023/04/07 13:11:01;;;;;;;1.08;0.90;;;;;;;14.23;63.22;100195.78;5074998;28;20052;-59
2023/04/07 13:13:26;;;;;;;1.88;1.20;;;;;;;13.95;64.64;100186.94;5075129;28;20033;-59
2023/04/07 13:15:52;;;;;;;1.30;1.10;;;;;;;13.48;70.56;100191.16;5074955;28;20036;-59
2023/04/07 13:18:18;;;;;;;2.13;1.13;;;;;;;13.40;77.51;100194.78;5074722;28;20037;-60
2023/04/07 13:20:43;;;;;;;1.77;1.27;;;;;;;12.91;80.29;100205.38;5074859;28;20068;-59
2023/04/07 13:23:09;;;;;;;1.35;1.08;;;;;;;12.86;80.10;100199.78;5074860;28;20033;-59
2023/04/07 13:25:34;;;;;;;2.00;0.90;;;;;;;12.90;84.98;100203.72;5074699;28;20390;-60
2023/04/07 13:28:00;;;;;;;1.75;0.93;;;;;;;12.88;85.75;100200.44;5073093;28;20037;-60
2023/04/07 13:30:26;;;;;;;3.42;1.50;;;;;;;12.70;85.71;100203.50;5074716;28;20079;-60
2023/04/07 13:32:51;;;;;;;1.50;1.00;;;;;;;12.97;80.32;100196.59;5074726;28;20044;-60
2023/04/07 13:35:17;;;;;;;1.27;1.10;;;;;;;12.95;85.51;100201.31;5074512;28;20124;-60
2023/04/07 13:37:43;;;;;;;1.83;1.15;;;;;;;12.96;83.22;100202.97;5074285;28;20094;-61
2023/04/07 13:40:11;;;;;;;1.67;1.38;;;;;;;13.03;84.63;100199.34;5074659;28;20131;-61
2023/04/07 13:42:36;;;;;;;;;;;;;;;12.96;83.82;100200.31;5075035;28;20036;-58
2023/04/07 13:45:02;;;;;;;2.17;1.40;;;;;;;12.83;84.63;100200.16;5074666;28;19969;-60
2023/04/07 13:47:32;;;;;;;1.38;1.10;;;;;;;12.92;84.00;100207.06;5074100;28;20036;-59
2023/04/07 13:49:58;;;;;;;1.33;0.98;;;;;;;12.74;79.96;100202.94;5074537;28;20397;-59
2023/04/07 13:52:24;;;;;;;3.45;1.38;;;;;;;12.75;80.53;100196.59;5074253;28;20173;-58
2023/04/07 13:54:50;;;;;;;1.45;1.30;;;;;;;12.61;83.27;100208.16;5073915;28;20127;-60
2023/04/07 13:57:19;;;;;;;1.98;1.30;;;;;;;12.80;80.14;100204.03;5073969;28;20154;-60
2023/04/07 13:59:48;;;;;;;3.25;1.35;;;;;;;12.82;83.93;100203.84;5074494;28;20451;-60
2023/04/07 14:02:13;;;;;;;2.17;1.40;;;;;;;12.84;83.53;100199.97;5074110;28;20043;-60
2023/04/07 14:04:39;;;;;;;2.40;1.33;;;;;;;12.65;78.75;100198.75;5074238;28;20056;-59
2023/04/07 14:07:04;;;;;;;4.38;1.55;;;;;;;12.68;78.41;100195.69;5073925;28;20037;-61
2023/04/07 14:09:30;;;;;;;3.80;1.50;;;;;;;13.02;76.98;100194.19;5074113;28;20405;-60
2023/04/07 14:11:57;;;;;;;1.30;1.08;;;;;;;13.18;76.99;100201.97;5074061;28;20029;-60
2023/04/07 14:14:22;;;;;;;2.42;1.30;;;;;;;13.27;79.94;100202.69;5073908;28;20032;-60
2023/04/07 14:16:51;;;;;;;1.70;1.33;;;;;;;13.45;80.91;100204.94;5073819;28;20489;-59
2023/04/07 14:19:20;;;;;;;2.38;1.20;;;;;;;13.60;76.58;100194.97;5073636;28;20055;-59
2023/04/07 14:21:45;;;;;;;1.45;1.08;;;;;;;13.87;74.00;100205.84;5073657;28;20044;-60
2023/04/07 14:24:10;;;;;;;1.70;0.90;;;;;;;13.61;76.65;100201.97;5073852;28;20120;-59
2023/04/07 14:26:36;;;;;;;1.75;1.25;;;;;;;13.76;74.71;100199.22;5073721;28;20489;-60
2023/04/07 14:29:02;;;;;;;1.92;1.10;;;;;;;13.72;75.21;100203.28;5073375;28;20082;-61
2023/04/07 14:31:28;;;;;;;1.95;1.20;;;;;;;13.38;77.08;100199.53;5073695;28;20087;-61
2023/04/07 14:33:54;;;;;;;1.92;1.23;;;;;;;13.28;75.47;100207.84;5073543;28;20032;-60
2023/04/07 14:36:20;;;;;;;2.10;1.50;;;;;;;13.23;78.15;100194.22;5073481;28;20075;-60
2023/04/07 14:38:45;;;;;;;2.53;1.27;;;;;;;13.52;76.90;100198.59;5073182;28;20082;-59
2023/04/07 14:41:11;;;;;;;1.10;1.00;;;;;;;13.49;75.32;100196.31;5073528;28;20043;-59
2023/04/07 14:43:38;;;;;;;2.00;1.20;;;;;;;13.51;75.91;100199.63;5073554;28;20115;-59
2023/04/07 14:46:04;;;;;;;1.70;1.08;;;;;;;13.46;74.10;100196.69;5073344;28;20037;-60
2023/04/07 14:48:29;;;;;;;1.40;1.02;;;;;;;13.47;74.20;100193.00;5072936;28;20044;-58
2023/04/07 14:50:55;;;;;;;1.90;1.40;;;;;;;13.51;73.58;100190.78;5073189;28;20075;-59
2023/04/07 14:53:20;;;;;;;2.10;1.20;;;;;;;13.66;75.50;100196.03;5073234;28;20048;-60
2023/04/07 14:55:45;;;;;;;2.38;1.42;;;;;;;13.58;73.00;100194.34;5073114;28;20091;-61
2023/04/07 14:58:11;;;;;;;1.63;1.25;;;;;;;13.75;72.99;100200.22;5072769;28;20489;-59
2023/04/07 15:00:36;;;;;;;2.55;1.00;;;;;;;13.68;71.78;100207.38;5073106;28;20047;-60
2023/04/07 15:03:02;;;;;;;1.50;1.30;;;;;;;13.70;73.29;100210.69;5073039;28;20039;-59
2023/04/07 15:05:29;;;;;;;1.52;1.20;;;;;;;13.48;74.96;100201.84;5072052;28;20127;-60
2023/04/07 15:07:54;;;;;;;1.13;1.02;;;;;;;13.64;75.60;100208.78;5072651;28;20094;-60
2023/04/07 15:10:20;;;;;;;1.50;1.20;;;;;;;13.43;75.21;100206.94;5072861;28;20042;-59
2023/04/07 15:12:45;;;;;;;1.50;1.02;;;;;;;13.37;74.16;100221.13;5072843;28;20033;-59
2023/04/07 15:15:14;;;;;;;2.38;1.20;;;;;;;13.40;76.53;100216.19;5072638;28;20123;-58
2023/04/07 15:17:40;;;;;;;1.55;1.10;;;;;;;13.66;74.01;100223.63;5072544;28;20033;-61
2023/04/07 15:20:06;;;;;;;1.85;1.50;;;;;;;13.62;74.55;100225.03;5072914;28;20374;-59
2023/04/07 15:22:32;;;;;;;2.25;1.27;;;;;;;13.53;73.99;100234.22;5072704;28;20082;-59
2023/04/07 15:24:57;;;;;;;2.58;1.35;;;;;;;13.74;74.45;100234.19;5072609;28;20400;-61
2023/04/07 15:27:23;;;;;;;2.85;1.30;;;;;;;13.70;72.52;100237.47;5072225;28;20029;-59
2023/04/07 15:29:48;;;;;;;1.90;1.00;;;;;;;13.44;76.29;100246.09;5072550;28;20489;-59
2023/04/07 15:32:14;;;;;;;3.40;1.40;;;;;;;13.57;74.30;100238.19;5072262;28;20093;-59
2023/04/07 15:34:39;;;;;;;1.10;1.00;;;;;;;13.57;74.11;100249.72;5072371;28;20133;-60
2023/04/07 15:37:04;;;;;;;1.08;0.98;;;;;;;13.13;76.93;100247.19;5072179;28;20185;-60
2023/04/07 15:39:30;;;;;;;1.80;1.08;;;;;;;13.23;75.97;100246.88;5072405;28;20038;-59
2023/04/07 15:41:55;;;;;;;2.42;0.98;;;;;;;12.82;77.81;100263.47;5072336;28;20060;-58
2023/04/07 15:44:21;;;;;;;1.20;1.10;;;;;;;12.86;77.63;100247.91;5072326;28;20468;-61
2023/04/07 15:46:47;;;;;;;1.27;0.88;;;;;;;12.80;79.51;100251.34;5072034;28;20036;-59
2023/04/07 15:49:18;;;;;;;2.15;1.30;;;;;;;12.79;81.12;100261.19;5072022;28;20138;-58